sensor_id;sensor_type;location;lat;lon;timestamp;pressure;altitude;pressure_sealevel;temperature
11849;BMP180;5983;49.966;8.052;2023-12-20T00:01:38;100501.00;;;5.40
11849;BMP180;5983;49.966;8.052;2023-12-20T00:04:05;100495.00;;;5.40
11849;BMP180;5983;49.966;8.052;2023-12-20T00:06:32;100500.00;;;5.40
11849;BMP180;5983;49.966;8.052;2023-12-20T00:08:59;100497.00;;;5.40
11849;BMP180;5983;49.966;8.052;2023-12-20T00:11:27;100492.00;;;5.40
11849;BMP180;5983;49.966;8.052;2023-12-20T00:13:54;100479.00;;;5.40
11849;BMP180;5983;49.966;8.052;2023-12-20T00:16:21;100476.00;;;5.40
11849;BMP180;5983;49.966;8.052;2023-12-20T00:18:47;100486.00;;;5.40
11849;BMP180;5983;49.966;8.052;2023-12-20T00:21:14;100484.00;;;5.40
11849;BMP180;5983;49.966;8.052;2023-12-20T00:23:41;100496.00;;;5.40
11849;BMP180;5983;49.966;8.052;2023-12-20T00:26:07;100484.00;;;5.40
11849;BMP180;5983;49.966;8.052;2023-12-20T00:28:36;100476.00;;;5.40
11849;BMP180;5983;49.966;8.052;2023-12-20T00:31:02;100473.00;;;5.40
11849;BMP180;5983;49.966;8.052;2023-12-20T00:33:30;100472.00;;;5.40
11849;BMP180;5983;49.966;8.052;2023-12-20T00:35:57;100478.00;;;5.40
11849;BMP180;5983;49.966;8.052;2023-12-20T00:38:24;100477.00;;;5.40
11849;BMP180;5983;49.966;8.052;2023-12-20T00:40:50;100469.00;;;5.40
11849;BMP180;5983;49.966;8.052;2023-12-20T00:43:17;100467.00;;;5.40
11849;BMP180;5983;49.966;8.052;2023-12-20T00:45:45;100474.00;;;5.40
11849;BMP180;5983;49.966;8.052;2023-12-20T00:48:12;100471.00;;;5.40
11849;BMP180;5983;49.966;8.052;2023-12-20T00:50:39;100470.00;;;5.40
11849;BMP180;5983;49.966;8.052;2023-12-20T00:53:06;100459.00;;;5.40
11849;BMP180;5983;49.966;8.052;2023-12-20T00:55:32;100457.00;;;5.40
11849;BMP180;5983;49.966;8.052;2023-12-20T00:57:59;100469.00;;;5.40
11849;BMP180;5983;49.966;8.052;2023-12-20T01:00:26;100459.00;;;5.40
11849;BMP180;5983;49.966;8.052;2023-12-20T01:02:54;100459.00;;;5.40
11849;BMP180;5983;49.966;8.052;2023-12-20T01:05:21;100463.00;;;5.40
11849;BMP180;5983;49.966;8.052;2023-12-20T01:07:49;100451.00;;;5.40
11849;BMP180;5983;49.966;8.052;2023-12-20T01:10:15;100458.00;;;5.40
11849;BMP180;5983;49.966;8.052;2023-12-20T01:12:43;100451.00;;;5.40
11849;BMP180;5983;49.966;8.052;2023-12-20T01:15:10;100449.00;;;5.40
11849;BMP180;5983;49.966;8.052;2023-12-20T01:17:36;100446.00;;;5.40
11849;BMP180;5983;49.966;8.052;2023-12-20T01:20:06;100447.00;;;5.40
11849;BMP180;5983;49.966;8.052;2023-12-20T01:22:33;100452.00;;;5.40
11849;BMP180;5983;49.966;8.052;2023-12-20T01:25:01;100458.00;;;5.40
11849;BMP180;5983;49.966;8.052;2023-12-20T01:27:28;100451.00;;;5.40
11849;BMP180;5983;49.966;8.052;2023-12-20T01:29:56;100436.00;;;5.40
11849;BMP180;5983;49.966;8.052;2023-12-20T01:32:23;100449.00;;;5.40
11849;BMP180;5983;49.966;8.052;2023-12-20T01:34:50;100439.00;;;5.40
11849;BMP180;5983;49.966;8.052;2023-12-20T01:37:18;100447.00;;;5.40
11849;BMP180;5983;49.966;8.052;2023-12-20T01:39:45;100462.00;;;5.40
11849;BMP180;5983;49.966;8.052;2023-12-20T01:42:13;100463.00;;;5.40
11849;BMP180;5983;49.966;8.052;2023-12-20T01:44:40;100474.00;;;5.40
11849;BMP180;5983;49.966;8.052;2023-12-20T01:47:07;100472.00;;;5.40
11849;BMP180;5983;49.966;8.052;2023-12-20T01:49:35;100466.00;;;5.40
11849;BMP180;5983;49.966;8.052;2023-12-20T01:52:02;100455.00;;;5.40
11849;BMP180;5983;49.966;8.052;2023-12-20T01:54:31;100460.00;;;5.40
11849;BMP180;5983;49.966;8.052;2023-12-20T01:56:58;100464.00;;;5.40
11849;BMP180;5983;49.966;8.052;2023-12-20T01:59:25;100478.00;;;5.40
11849;BMP180;5983;49.966;8.052;2023-12-20T02:01:52;100456.00;;;5.40
11849;BMP180;5983;49.966;8.052;2023-12-20T02:04:19;100456.00;;;5.40
11849;BMP180;5983;49.966;8.052;2023-12-20T02:06:46;100467.00;;;5.40
11849;BMP180;5983;49.966;8.052;2023-12-20T02:09:13;100460.00;;;5.40
11849;BMP180;5983;49.966;8.052;2023-12-20T02:11:43;100449.00;;;5.40
11849;BMP180;5983;49.966;8.052;2023-12-20T02:14:10;100437.00;;;5.40
11849;BMP180;5983;49.966;8.052;2023-12-20T02:16:36;100430.00;;;5.40
11849;BMP180;5983;49.966;8.052;2023-12-20T02:19:04;100432.00;;;5.40
11849;BMP180;5983;49.966;8.052;2023-12-20T02:21:34;100441.00;;;5.30
11849;BMP180;5983;49.966;8.052;2023-12-20T02:24:01;100444.00;;;5.30
11849;BMP180;5983;49.966;8.052;2023-12-20T02:26:27;100451.00;;;5.30
11849;BMP180;5983;49.966;8.052;2023-12-20T02:28:54;100443.00;;;5.30
11849;BMP180;5983;49.966;8.052;2023-12-20T02:31:21;100451.00;;;5.30
11849;BMP180;5983;49.966;8.052;2023-12-20T02:33:48;100448.00;;;5.30
11849;BMP180;5983;49.966;8.052;2023-12-20T02:36:15;100451.00;;;5.30
11849;BMP180;5983;49.966;8.052;2023-12-20T02:38:43;100443.00;;;5.40
11849;BMP180;5983;49.966;8.052;2023-12-20T02:41:10;100445.00;;;5.40
11849;BMP180;5983;49.966;8.052;2023-12-20T02:43:37;100450.00;;;5.40
11849;BMP180;5983;49.966;8.052;2023-12-20T02:46:03;100456.00;;;5.40
11849;BMP180;5983;49.966;8.052;2023-12-20T02:48:30;100463.00;;;5.40
11849;BMP180;5983;49.966;8.052;2023-12-20T02:50:57;100465.00;;;5.40
11849;BMP180;5983;49.966;8.052;2023-12-20T02:53:24;100461.00;;;5.50
11849;BMP180;5983;49.966;8.052;2023-12-20T02:55:52;100458.00;;;5.40
11849;BMP180;5983;49.966;8.052;2023-12-20T02:58:19;100458.00;;;5.50
11849;BMP180;5983;49.966;8.052;2023-12-20T03:00:45;100443.00;;;5.50
11849;BMP180;5983;49.966;8.052;2023-12-20T03:03:12;100453.00;;;5.50
11849;BMP180;5983;49.966;8.052;2023-12-20T03:05:39;100454.00;;;5.50
11849;BMP180;5983;49.966;8.052;2023-12-20T03:08:06;100455.00;;;5.50
11849;BMP180;5983;49.966;8.052;2023-12-20T03:10:32;100448.00;;;5.50
11849;BMP180;5983;49.966;8.052;2023-12-20T03:13:00;100466.00;;;5.50
11849;BMP180;5983;49.966;8.052;2023-12-20T03:15:27;100458.00;;;5.50
11849;BMP180;5983;49.966;8.052;2023-12-20T03:17:54;100454.00;;;5.60
11849;BMP180;5983;49.966;8.052;2023-12-20T03:20:21;100460.00;;;5.60
11849;BMP180;5983;49.966;8.052;2023-12-20T03:22:48;100458.00;;;5.60
11849;BMP180;5983;49.966;8.052;2023-12-20T03:25:15;100484.00;;;5.70
11849;BMP180;5983;49.966;8.052;2023-12-20T03:27:41;100483.00;;;5.70
11849;BMP180;5983;49.966;8.052;2023-12-20T03:30:10;100480.00;;;5.70
11849;BMP180;5983;49.966;8.052;2023-12-20T03:32:37;100488.00;;;5.80
11849;BMP180;5983;49.966;8.052;2023-12-20T03:35:05;100488.00;;;5.80
11849;BMP180;5983;49.966;8.052;2023-12-20T03:37:32;100487.00;;;5.80
11849;BMP180;5983;49.966;8.052;2023-12-20T03:39:59;100488.00;;;5.80
11849;BMP180;5983;49.966;8.052;2023-12-20T03:42:25;100490.00;;;5.80
11849;BMP180;5983;49.966;8.052;2023-12-20T03:44:52;100493.00;;;5.80
11849;BMP180;5983;49.966;8.052;2023-12-20T03:47:20;100497.00;;;5.80
11849;BMP180;5983;49.966;8.052;2023-12-20T03:49:47;100512.00;;;5.80
11849;BMP180;5983;49.966;8.052;2023-12-20T03:52:14;100493.00;;;5.80
11849;BMP180;5983;49.966;8.052;2023-12-20T03:54:41;100493.00;;;5.80
11849;BMP180;5983;49.966;8.052;2023-12-20T03:57:08;100495.00;;;5.90
11849;BMP180;5983;49.966;8.052;2023-12-20T03:59:35;100490.00;;;5.90
11849;BMP180;5983;49.966;8.052;2023-12-20T04:02:02;100496.00;;;5.90
11849;BMP180;5983;49.966;8.052;2023-12-20T04:04:31;100492.00;;;5.90
11849;BMP180;5983;49.966;8.052;2023-12-20T04:06:57;100507.00;;;5.90
11849;BMP180;5983;49.966;8.052;2023-12-20T04:09:24;100511.00;;;5.90
11849;BMP180;5983;49.966;8.052;2023-12-20T04:11:51;100522.00;;;6.00
11849;BMP180;5983;49.966;8.052;2023-12-20T04:14:17;100529.00;;;6.00
11849;BMP180;5983;49.966;8.052;2023-12-20T04:16:43;100549.00;;;5.90
11849;BMP180;5983;49.966;8.052;2023-12-20T04:19:10;100535.00;;;5.90
11849;BMP180;5983;49.966;8.052;2023-12-20T04:21:38;100539.00;;;5.80
11849;BMP180;5983;49.966;8.052;2023-12-20T04:24:05;100532.00;;;5.80
11849;BMP180;5983;49.966;8.052;2023-12-20T04:26:32;100532.00;;;5.70
11849;BMP180;5983;49.966;8.052;2023-12-20T04:28:59;100528.00;;;5.70
11849;BMP180;5983;49.966;8.052;2023-12-20T04:31:26;100550.00;;;5.70
11849;BMP180;5983;49.966;8.052;2023-12-20T04:33:53;100555.00;;;5.70
11849;BMP180;5983;49.966;8.052;2023-12-20T04:36:19;100563.00;;;5.70
11849;BMP180;5983;49.966;8.052;2023-12-20T04:38:48;100563.00;;;5.70
11849;BMP180;5983;49.966;8.052;2023-12-20T04:41:14;100576.00;;;5.70
11849;BMP180;5983;49.966;8.052;2023-12-20T04:43:44;100568.00;;;5.60
11849;BMP180;5983;49.966;8.052;2023-12-20T04:46:11;100572.00;;;5.60
11849;BMP180;5983;49.966;8.052;2023-12-20T04:48:37;100579.00;;;5.60
11849;BMP180;5983;49.966;8.052;2023-12-20T04:51:04;100587.00;;;5.50
11849;BMP180;5983;49.966;8.052;2023-12-20T04:53:31;100576.00;;;5.40
11849;BMP180;5983;49.966;8.052;2023-12-20T04:55:59;100574.00;;;5.30
11849;BMP180;5983;49.966;8.052;2023-12-20T04:58:26;100573.00;;;5.30
11849;BMP180;5983;49.966;8.052;2023-12-20T05:00:53;100582.00;;;5.20
11849;BMP180;5983;49.966;8.052;2023-12-20T05:03:20;100569.00;;;5.10
11849;BMP180;5983;49.966;8.052;2023-12-20T05:05:46;100566.00;;;5.00
11849;BMP180;5983;49.966;8.052;2023-12-20T05:08:13;100581.00;;;5.00
11849;BMP180;5983;49.966;8.052;2023-12-20T05:10:41;100586.00;;;4.90
11849;BMP180;5983;49.966;8.052;2023-12-20T05:13:09;100589.00;;;4.90
11849;BMP180;5983;49.966;8.052;2023-12-20T05:15:36;100592.00;;;4.80
11849;BMP180;5983;49.966;8.052;2023-12-20T05:18:03;100579.00;;;4.80
11849;BMP180;5983;49.966;8.052;2023-12-20T05:20:30;100578.00;;;4.80
11849;BMP180;5983;49.966;8.052;2023-12-20T05:22:57;100589.00;;;4.80
11849;BMP180;5983;49.966;8.052;2023-12-20T05:25:24;100588.00;;;4.80
11849;BMP180;5983;49.966;8.052;2023-12-20T05:27:50;100589.00;;;4.80
11849;BMP180;5983;49.966;8.052;2023-12-20T05:30:19;100581.00;;;4.80
11849;BMP180;5983;49.966;8.052;2023-12-20T05:32:45;100582.00;;;4.80
11849;BMP180;5983;49.966;8.052;2023-12-20T05:35:12;100591.00;;;4.90
11849;BMP180;5983;49.966;8.052;2023-12-20T05:37:39;100577.00;;;4.90
11849;BMP180;5983;49.966;8.052;2023-12-20T05:40:07;100570.00;;;4.90
11849;BMP180;5983;49.966;8.052;2023-12-20T05:42:35;100571.00;;;4.90
11849;BMP180;5983;49.966;8.052;2023-12-20T05:45:02;100588.00;;;4.90
11849;BMP180;5983;49.966;8.052;2023-12-20T05:47:30;100586.00;;;4.90
11849;BMP180;5983;49.966;8.052;2023-12-20T05:49:57;100569.00;;;4.80
11849;BMP180;5983;49.966;8.052;2023-12-20T05:52:24;100580.00;;;4.80
11849;BMP180;5983;49.966;8.052;2023-12-20T05:54:51;100592.00;;;4.80
11849;BMP180;5983;49.966;8.052;2023-12-20T05:57:18;100588.00;;;4.80
11849;BMP180;5983;49.966;8.052;2023-12-20T05:59:44;100589.00;;;4.80
11849;BMP180;5983;49.966;8.052;2023-12-20T06:02:11;100586.00;;;4.70
11849;BMP180;5983;49.966;8.052;2023-12-20T06:04:43;100588.00;;;4.70
11849;BMP180;5983;49.966;8.052;2023-12-20T06:07:11;100600.00;;;4.70
11849;BMP180;5983;49.966;8.052;2023-12-20T06:09:38;100613.00;;;4.70
11849;BMP180;5983;49.966;8.052;2023-12-20T06:12:05;100610.00;;;4.70
11849;BMP180;5983;49.966;8.052;2023-12-20T06:14:32;100626.00;;;4.70
11849;BMP180;5983;49.966;8.052;2023-12-20T06:16:59;100613.00;;;4.70
11849;BMP180;5983;49.966;8.052;2023-12-20T06:19:26;100618.00;;;4.70
11849;BMP180;5983;49.966;8.052;2023-12-20T06:21:54;100614.00;;;4.60
11849;BMP180;5983;49.966;8.052;2023-12-20T06:24:21;100609.00;;;4.60
11849;BMP180;5983;49.966;8.052;2023-12-20T06:26:48;100605.00;;;4.60
11849;BMP180;5983;49.966;8.052;2023-12-20T06:29:15;100614.00;;;4.60
11849;BMP180;5983;49.966;8.052;2023-12-20T06:31:42;100613.00;;;4.60
11849;BMP180;5983;49.966;8.052;2023-12-20T06:34:09;100618.00;;;4.60
11849;BMP180;5983;49.966;8.052;2023-12-20T06:36:36;100598.00;;;4.60
11849;BMP180;5983;49.966;8.052;2023-12-20T06:39:04;100604.00;;;4.60
11849;BMP180;5983;49.966;8.052;2023-12-20T06:41:31;100607.00;;;4.70
11849;BMP180;5983;49.966;8.052;2023-12-20T06:43:57;100612.00;;;4.80
11849;BMP180;5983;49.966;8.052;2023-12-20T06:46:24;100604.00;;;4.80
11849;BMP180;5983;49.966;8.052;2023-12-20T06:48:51;100606.00;;;4.80
11849;BMP180;5983;49.966;8.052;2023-12-20T06:51:18;100618.00;;;4.90
11849;BMP180;5983;49.966;8.052;2023-12-20T06:53:45;100601.00;;;4.80
11849;BMP180;5983;49.966;8.052;2023-12-20T06:56:13;100596.00;;;4.80
11849;BMP180;5983;49.966;8.052;2023-12-20T06:58:42;100594.00;;;4.90
11849;BMP180;5983;49.966;8.052;2023-12-20T07:01:11;100589.00;;;4.90
11849;BMP180;5983;49.966;8.052;2023-12-20T07:03:37;100628.00;;;4.80
11849;BMP180;5983;49.966;8.052;2023-12-20T07:06:04;100624.00;;;4.80
11849;BMP180;5983;49.966;8.052;2023-12-20T07:08:31;100627.00;;;4.80
11849;BMP180;5983;49.966;8.052;2023-12-20T07:10:58;100632.00;;;4.80
11849;BMP180;5983;49.966;8.052;2023-12-20T07:13:26;100633.00;;;4.90
11849;BMP180;5983;49.966;8.052;2023-12-20T07:15:53;100640.00;;;5.00
11849;BMP180;5983;49.966;8.052;2023-12-20T07:18:20;100640.00;;;5.00
11849;BMP180;5983;49.966;8.052;2023-12-20T07:20:46;100636.00;;;5.00
11849;BMP180;5983;49.966;8.052;2023-12-20T07:23:13;100643.00;;;5.10
11849;BMP180;5983;49.966;8.052;2023-12-20T07:25:40;100655.00;;;5.10
11849;BMP180;5983;49.966;8.052;2023-12-20T07:28:09;100648.00;;;5.00
11849;BMP180;5983;49.966;8.052;2023-12-20T07:30:37;100655.00;;;5.00
11849;BMP180;5983;49.966;8.052;2023-12-20T07:33:04;100655.00;;;5.00
11849;BMP180;5983;49.966;8.052;2023-12-20T07:35:33;100653.00;;;5.00
11849;BMP180;5983;49.966;8.052;2023-12-20T07:38:00;100654.00;;;5.10
11849;BMP180;5983;49.966;8.052;2023-12-20T07:40:27;100660.00;;;5.10
11849;BMP180;5983;49.966;8.052;2023-12-20T07:42:54;100658.00;;;5.10
11849;BMP180;5983;49.966;8.052;2023-12-20T07:45:21;100652.00;;;5.10
11849;BMP180;5983;49.966;8.052;2023-12-20T07:47:49;100665.00;;;5.20
11849;BMP180;5983;49.966;8.052;2023-12-20T07:50:16;100675.00;;;5.20
11849;BMP180;5983;49.966;8.052;2023-12-20T07:52:43;100679.00;;;5.20
11849;BMP180;5983;49.966;8.052;2023-12-20T07:55:10;100674.00;;;5.30
11849;BMP180;5983;49.966;8.052;2023-12-20T07:57:36;100676.00;;;5.30
11849;BMP180;5983;49.966;8.052;2023-12-20T08:00:04;100666.00;;;5.40
11849;BMP180;5983;49.966;8.052;2023-12-20T08:02:31;100688.00;;;5.40
11849;BMP180;5983;49.966;8.052;2023-12-20T08:04:59;100685.00;;;5.50
11849;BMP180;5983;49.966;8.052;2023-12-20T08:07:26;100682.00;;;5.50
11849;BMP180;5983;49.966;8.052;2023-12-20T08:09:53;100683.00;;;5.70
11849;BMP180;5983;49.966;8.052;2023-12-20T08:12:22;100685.00;;;5.70
11849;BMP180;5983;49.966;8.052;2023-12-20T08:14:49;100686.00;;;5.70
11849;BMP180;5983;49.966;8.052;2023-12-20T08:17:15;100676.00;;;5.70
11849;BMP180;5983;49.966;8.052;2023-12-20T08:19:44;100684.00;;;5.80
11849;BMP180;5983;49.966;8.052;2023-12-20T08:22:12;100681.00;;;5.90
11849;BMP180;5983;49.966;8.052;2023-12-20T08:24:39;100675.00;;;5.90
11849;BMP180;5983;49.966;8.052;2023-12-20T08:27:05;100685.00;;;6.00
11849;BMP180;5983;49.966;8.052;2023-12-20T08:29:32;100691.00;;;5.90
11849;BMP180;5983;49.966;8.052;2023-12-20T08:31:59;100684.00;;;5.90
11849;BMP180;5983;49.966;8.052;2023-12-20T08:34:26;100701.00;;;5.90
11849;BMP180;5983;49.966;8.052;2023-12-20T08:36:53;100699.00;;;6.00
11849;BMP180;5983;49.966;8.052;2023-12-20T08:39:21;100693.00;;;6.00
11849;BMP180;5983;49.966;8.052;2023-12-20T08:41:48;100696.00;;;6.00
11849;BMP180;5983;49.966;8.052;2023-12-20T08:44:15;100692.00;;;6.00
11849;BMP180;5983;49.966;8.052;2023-12-20T08:46:41;100689.00;;;6.00
11849;BMP180;5983;49.966;8.052;2023-12-20T08:51:36;100696.00;;;6.00
11849;BMP180;5983;49.966;8.052;2023-12-20T08:54:05;100693.00;;;6.00
11849;BMP180;5983;49.966;8.052;2023-12-20T08:56:34;100697.00;;;6.10
11849;BMP180;5983;49.966;8.052;2023-12-20T08:59:01;100707.00;;;6.20
11849;BMP180;5983;49.966;8.052;2023-12-20T09:01:28;100708.00;;;6.20
11849;BMP180;5983;49.966;8.052;2023-12-20T09:03:55;100707.00;;;6.30
11849;BMP180;5983;49.966;8.052;2023-12-20T09:06:22;100690.00;;;6.40
11849;BMP180;5983;49.966;8.052;2023-12-20T09:08:48;100706.00;;;6.50
11849;BMP180;5983;49.966;8.052;2023-12-20T09:11:15;100700.00;;;6.60
11849;BMP180;5983;49.966;8.052;2023-12-20T09:13:44;100695.00;;;6.60
11849;BMP180;5983;49.966;8.052;2023-12-20T09:16:11;100697.00;;;6.50
11849;BMP180;5983;49.966;8.052;2023-12-20T09:18:38;100703.00;;;6.50
11849;BMP180;5983;49.966;8.052;2023-12-20T09:21:05;100700.00;;;6.50
11849;BMP180;5983;49.966;8.052;2023-12-20T09:23:32;100703.00;;;6.50
11849;BMP180;5983;49.966;8.052;2023-12-20T09:25:58;100686.00;;;6.60
11849;BMP180;5983;49.966;8.052;2023-12-20T09:28:25;100685.00;;;6.70
11849;BMP180;5983;49.966;8.052;2023-12-20T09:30:53;100681.00;;;6.80
11849;BMP180;5983;49.966;8.052;2023-12-20T09:33:20;100681.00;;;6.90
11849;BMP180;5983;49.966;8.052;2023-12-20T09:35:47;100701.00;;;7.00
11849;BMP180;5983;49.966;8.052;2023-12-20T09:38:14;100709.00;;;7.10
11849;BMP180;5983;49.966;8.052;2023-12-20T09:40:42;100707.00;;;7.20
11849;BMP180;5983;49.966;8.052;2023-12-20T09:43:11;100704.00;;;7.30
11849;BMP180;5983;49.966;8.052;2023-12-20T09:45:38;100703.00;;;7.50
11849;BMP180;5983;49.966;8.052;2023-12-20T09:48:10;100708.00;;;8.00
11849;BMP180;5983;49.966;8.052;2023-12-20T09:50:37;100707.00;;;9.20
11849;BMP180;5983;49.966;8.052;2023-12-20T09:53:04;100713.00;;;10.50
11849;BMP180;5983;49.966;8.052;2023-12-20T09:55:32;100713.00;;;11.60
11849;BMP180;5983;49.966;8.052;2023-12-20T09:57:59;100721.00;;;12.30
11849;BMP180;5983;49.966;8.052;2023-12-20T10:00:26;100728.00;;;12.50
11849;BMP180;5983;49.966;8.052;2023-12-20T10:02:57;100726.00;;;12.40
11849;BMP180;5983;49.966;8.052;2023-12-20T10:05:27;100732.00;;;11.60
11849;BMP180;5983;49.966;8.052;2023-12-20T10:07:54;100727.00;;;10.80
11849;BMP180;5983;49.966;8.052;2023-12-20T10:10:21;100731.00;;;10.10
11849;BMP180;5983;49.966;8.052;2023-12-20T10:13:01;100722.00;;;9.50
11849;BMP180;5983;49.966;8.052;2023-12-20T10:15:28;100725.00;;;9.00
11849;BMP180;5983;49.966;8.052;2023-12-20T10:17:56;100727.00;;;8.70
11849;BMP180;5983;49.966;8.052;2023-12-20T10:20:24;100719.00;;;8.40
11849;BMP180;5983;49.966;8.052;2023-12-20T10:22:52;100709.00;;;8.30
11849;BMP180;5983;49.966;8.052;2023-12-20T10:25:20;100706.00;;;8.10
11849;BMP180;5983;49.966;8.052;2023-12-20T10:27:47;100706.00;;;7.90
11849;BMP180;5983;49.966;8.052;2023-12-20T10:30:14;100692.00;;;7.80
11849;BMP180;5983;49.966;8.052;2023-12-20T10:32:40;100687.00;;;7.70
11849;BMP180;5983;49.966;8.052;2023-12-20T10:35:08;100701.00;;;7.70
11849;BMP180;5983;49.966;8.052;2023-12-20T10:37:36;100690.00;;;7.70
11849;BMP180;5983;49.966;8.052;2023-12-20T10:40:04;100676.00;;;7.70
11849;BMP180;5983;49.966;8.052;2023-12-20T10:42:32;100679.00;;;7.60
11849;BMP180;5983;49.966;8.052;2023-12-20T10:45:00;100677.00;;;7.60
11849;BMP180;5983;49.966;8.052;2023-12-20T10:47:27;100680.00;;;7.60
11849;BMP180;5983;49.966;8.052;2023-12-20T10:49:54;100677.00;;;7.50
11849;BMP180;5983;49.966;8.052;2023-12-20T10:52:23;100674.00;;;7.60
11849;BMP180;5983;49.966;8.052;2023-12-20T10:54:51;100664.00;;;7.60
11849;BMP180;5983;49.966;8.052;2023-12-20T10:57:18;100659.00;;;7.70
11849;BMP180;5983;49.966;8.052;2023-12-20T10:59:45;100670.00;;;7.90
11849;BMP180;5983;49.966;8.052;2023-12-20T11:02:14;100669.00;;;8.00
11849;BMP180;5983;49.966;8.052;2023-12-20T11:04:46;100666.00;;;8.00
11849;BMP180;5983;49.966;8.052;2023-12-20T11:07:19;100665.00;;;8.10
11849;BMP180;5983;49.966;8.052;2023-12-20T11:09:57;100678.00;;;8.10
11849;BMP180;5983;49.966;8.052;2023-12-20T11:12:34;100665.00;;;8.20
11849;BMP180;5983;49.966;8.052;2023-12-20T11:15:03;100664.00;;;8.20
11849;BMP180;5983;49.966;8.052;2023-12-20T11:17:32;100664.00;;;8.30
11849;BMP180;5983;49.966;8.052;2023-12-20T11:20:09;100667.00;;;8.30
11849;BMP180;5983;49.966;8.052;2023-12-20T11:22:37;100658.00;;;8.20
11849;BMP180;5983;49.966;8.052;2023-12-20T11:25:09;100668.00;;;8.20
11849;BMP180;5983;49.966;8.052;2023-12-20T11:27:41;100670.00;;;8.10
11849;BMP180;5983;49.966;8.052;2023-12-20T11:30:09;100668.00;;;8.00
11849;BMP180;5983;49.966;8.052;2023-12-20T11:32:36;100665.00;;;7.80
11849;BMP180;5983;49.966;8.052;2023-12-20T11:35:17;100672.00;;;7.80
11849;BMP180;5983;49.966;8.052;2023-12-20T11:37:45;100662.00;;;7.70
11849;BMP180;5983;49.966;8.052;2023-12-20T11:40:15;100669.00;;;7.60
11849;BMP180;5983;49.966;8.052;2023-12-20T11:42:43;100668.00;;;7.50
11849;BMP180;5983;49.966;8.052;2023-12-20T11:45:11;100666.00;;;7.50
11849;BMP180;5983;49.966;8.052;2023-12-20T11:47:40;100668.00;;;7.50
11849;BMP180;5983;49.966;8.052;2023-12-20T11:50:07;100655.00;;;7.50
11849;BMP180;5983;49.966;8.052;2023-12-20T11:52:35;100663.00;;;7.40
11849;BMP180;5983;49.966;8.052;2023-12-20T11:55:02;100657.00;;;7.40
11849;BMP180;5983;49.966;8.052;2023-12-20T11:57:30;100650.00;;;7.40
11849;BMP180;5983;49.966;8.052;2023-12-20T11:59:57;100650.00;;;7.40
11849;BMP180;5983;49.966;8.052;2023-12-20T12:02:24;100642.00;;;7.50
11849;BMP180;5983;49.966;8.052;2023-12-20T12:04:51;100637.00;;;7.70
11849;BMP180;5983;49.966;8.052;2023-12-20T12:07:18;100635.00;;;8.10
11849;BMP180;5983;49.966;8.052;2023-12-20T12:09:45;100624.00;;;8.20
11849;BMP180;5983;49.966;8.052;2023-12-20T12:12:13;100620.00;;;8.30
11849;BMP180;5983;49.966;8.052;2023-12-20T12:14:42;100621.00;;;9.40
11849;BMP180;5983;49.966;8.052;2023-12-20T12:17:12;100633.00;;;10.70
11849;BMP180;5983;49.966;8.052;2023-12-20T12:19:39;100630.00;;;10.70
11849;BMP180;5983;49.966;8.052;2023-12-20T12:22:07;100625.00;;;10.60
11849;BMP180;5983;49.966;8.052;2023-12-20T12:24:36;100625.00;;;10.20
11849;BMP180;5983;49.966;8.052;2023-12-20T12:27:05;100627.00;;;10.00
11849;BMP180;5983;49.966;8.052;2023-12-20T12:29:33;100620.00;;;9.70
11849;BMP180;5983;49.966;8.052;2023-12-20T12:32:04;100615.00;;;9.50
11849;BMP180;5983;49.966;8.052;2023-12-20T12:34:31;100616.00;;;9.30
11849;BMP180;5983;49.966;8.052;2023-12-20T12:36:59;100617.00;;;9.20
11849;BMP180;5983;49.966;8.052;2023-12-20T12:39:26;100616.00;;;9.20
11849;BMP180;5983;49.966;8.052;2023-12-20T12:41:53;100599.00;;;9.10
11849;BMP180;5983;49.966;8.052;2023-12-20T12:44:20;100595.00;;;9.10
11849;BMP180;5983;49.966;8.052;2023-12-20T12:46:49;100601.00;;;9.00
11849;BMP180;5983;49.966;8.052;2023-12-20T12:49:17;100589.00;;;9.00
11849;BMP180;5983;49.966;8.052;2023-12-20T12:51:44;100577.00;;;9.10
11849;BMP180;5983;49.966;8.052;2023-12-20T12:54:12;100566.00;;;9.30
11849;BMP180;5983;49.966;8.052;2023-12-20T12:56:39;100568.00;;;9.90
11849;BMP180;5983;49.966;8.052;2023-12-20T12:59:05;100568.00;;;10.70
11849;BMP180;5983;49.966;8.052;2023-12-20T13:01:32;100574.00;;;12.00
11849;BMP180;5983;49.966;8.052;2023-12-20T13:03:59;100573.00;;;13.30
11849;BMP180;5983;49.966;8.052;2023-12-20T13:06:28;100573.00;;;14.40
11849;BMP180;5983;49.966;8.052;2023-12-20T13:08:55;100578.00;;;15.50
11849;BMP180;5983;49.966;8.052;2023-12-20T13:11:21;100567.00;;;16.00
11849;BMP180;5983;49.966;8.052;2023-12-20T13:13:48;100561.00;;;15.40
11849;BMP180;5983;49.966;8.052;2023-12-20T13:16:15;100552.00;;;15.10
11849;BMP180;5983;49.966;8.052;2023-12-20T13:18:42;100570.00;;;15.00
11849;BMP180;5983;49.966;8.052;2023-12-20T13:21:08;100563.00;;;15.60
11849;BMP180;5983;49.966;8.052;2023-12-20T13:23:36;100561.00;;;15.80
11849;BMP180;5983;49.966;8.052;2023-12-20T13:26:03;100568.00;;;14.80
11849;BMP180;5983;49.966;8.052;2023-12-20T13:28:31;100559.00;;;13.60
11849;BMP180;5983;49.966;8.052;2023-12-20T13:30:58;100547.00;;;12.90
11849;BMP180;5983;49.966;8.052;2023-12-20T13:33:25;100536.00;;;12.40
11849;BMP180;5983;49.966;8.052;2023-12-20T13:35:52;100527.00;;;11.90
11849;BMP180;5983;49.966;8.052;2023-12-20T13:38:18;100515.00;;;11.60
11849;BMP180;5983;49.966;8.052;2023-12-20T13:40:46;100518.00;;;11.80
11849;BMP180;5983;49.966;8.052;2023-12-20T13:43:13;100530.00;;;11.80
11849;BMP180;5983;49.966;8.052;2023-12-20T13:45:42;100532.00;;;12.00
11849;BMP180;5983;49.966;8.052;2023-12-20T13:48:09;100526.00;;;12.10
11849;BMP180;5983;49.966;8.052;2023-12-20T13:50:35;100533.00;;;12.10
11849;BMP180;5983;49.966;8.052;2023-12-20T13:53:02;100538.00;;;12.10
11849;BMP180;5983;49.966;8.052;2023-12-20T13:55:29;100531.00;;;12.10
11849;BMP180;5983;49.966;8.052;2023-12-20T13:57:57;100530.00;;;12.00
11849;BMP180;5983;49.966;8.052;2023-12-20T14:00:24;100534.00;;;11.60
11849;BMP180;5983;49.966;8.052;2023-12-20T14:02:51;100540.00;;;11.30
11849;BMP180;5983;49.966;8.052;2023-12-20T14:05:17;100531.00;;;11.00
11849;BMP180;5983;49.966;8.052;2023-12-20T14:07:45;100532.00;;;10.70
11849;BMP180;5983;49.966;8.052;2023-12-20T14:10:12;100534.00;;;10.40
11849;BMP180;5983;49.966;8.052;2023-12-20T14:12:39;100527.00;;;10.00
11849;BMP180;5983;49.966;8.052;2023-12-20T14:15:08;100528.00;;;9.70
11849;BMP180;5983;49.966;8.052;2023-12-20T14:17:36;100528.00;;;9.50
11849;BMP180;5983;49.966;8.052;2023-12-20T14:20:04;100517.00;;;9.40
11849;BMP180;5983;49.966;8.052;2023-12-20T14:22:31;100519.00;;;9.20